sensor_id;sensor_type;location;lat;lon;timestamp;P1;durP1;ratioP1;P2;durP2;ratioP2
18651;SDS011;9455;54.302;10.124;2022-10-22T00:00:12;21.17;;;9.20;;
18651;SDS011;9455;54.302;10.124;2022-10-22T00:02:42;25.40;;;9.77;;
18651;SDS011;9455;54.302;10.124;2022-10-22T00:05:09;25.33;;;8.33;;
18651;SDS011;9455;54.302;10.124;2022-10-22T00:07:36;15.50;;;8.77;;
18651;SDS011;9455;54.302;10.124;2022-10-22T00:10:03;17.87;;;8.43;;
18651;SDS011;9455;54.302;10.124;2022-10-22T00:12:31;15.47;;;9.30;;
18651;SDS011;9455;54.302;10.124;2022-10-22T00:14:57;16.23;;;8.63;;
18651;SDS011;9455;54.302;10.124;2022-10-22T00:17:24;20.23;;;8.43;;
18651;SDS011;9455;54.302;10.124;2022-10-22T00:19:52;21.57;;;8.60;;
18651;SDS011;9455;54.302;10.124;2022-10-22T00:22:18;20.17;;;9.67;;
18651;SDS011;9455;54.302;10.124;2022-10-22T00:24:45;29.73;;;9.50;;
18651;SDS011;9455;54.302;10.124;2022-10-22T00:27:11;19.97;;;8.43;;
18651;SDS011;9455;54.302;10.124;2022-10-22T00:29:39;19.43;;;9.37;;
18651;SDS011;9455;54.302;10.124;2022-10-22T00:32:06;18.07;;;9.03;;
18651;SDS011;9455;54.302;10.124;2022-10-22T00:34:32;18.63;;;9.87;;
18651;SDS011;9455;54.302;10.124;2022-10-22T00:37:00;16.30;;;9.93;;
18651;SDS011;9455;54.302;10.124;2022-10-22T00:39:27;21.53;;;10.80;;
18651;SDS011;9455;54.302;10.124;2022-10-22T00:41:55;18.73;;;8.80;;
18651;SDS011;9455;54.302;10.124;2022-10-22T00:47:26;23.13;;;9.50;;
18651;SDS011;9455;54.302;10.124;2022-10-22T00:49:56;23.47;;;10.33;;
18651;SDS011;9455;54.302;10.124;2022-10-22T00:52:25;24.97;;;10.90;;
18651;SDS011;9455;54.302;10.124;2022-10-22T00:54:52;21.17;;;11.07;;
18651;SDS011;9455;54.302;10.124;2022-10-22T00:57:19;24.73;;;10.03;;
18651;SDS011;9455;54.302;10.124;2022-10-22T00:59:46;32.20;;;12.10;;
18651;SDS011;9455;54.302;10.124;2022-10-22T01:02:13;26.23;;;12.83;;
18651;SDS011;9455;54.302;10.124;2022-10-22T01:04:40;29.90;;;10.60;;
18651;SDS011;9455;54.302;10.124;2022-10-22T01:07:08;34.03;;;11.57;;
18651;SDS011;9455;54.302;10.124;2022-10-22T01:09:42;25.43;;;12.13;;
18651;SDS011;9455;54.302;10.124;2022-10-22T01:12:17;32.20;;;12.07;;
18651;SDS011;9455;54.302;10.124;2022-10-22T01:14:51;28.77;;;10.00;;
18651;SDS011;9455;54.302;10.124;2022-10-22T01:17:29;25.27;;;11.27;;
18651;SDS011;9455;54.302;10.124;2022-10-22T01:20:03;29.07;;;12.77;;
18651;SDS011;9455;54.302;10.124;2022-10-22T01:22:44;30.87;;;13.00;;
18651;SDS011;9455;54.302;10.124;2022-10-22T01:25:29;28.07;;;11.63;;
18651;SDS011;9455;54.302;10.124;2022-10-22T01:28:00;19.67;;;10.53;;
18651;SDS011;9455;54.302;10.124;2022-10-22T01:30:37;22.87;;;11.53;;
18651;SDS011;9455;54.302;10.124;2022-10-22T01:33:06;26.67;;;11.47;;
18651;SDS011;9455;54.302;10.124;2022-10-22T01:35:36;25.63;;;11.90;;
18651;SDS011;9455;54.302;10.124;2022-10-22T01:38:06;25.47;;;11.13;;
18651;SDS011;9455;54.302;10.124;2022-10-22T01:40:36;18.83;;;10.47;;
18651;SDS011;9455;54.302;10.124;2022-10-22T01:43:03;18.57;;;10.47;;
18651;SDS011;9455;54.302;10.124;2022-10-22T01:45:32;27.37;;;11.63;;
18651;SDS011;9455;54.302;10.124;2022-10-22T01:48:07;24.60;;;10.97;;
18651;SDS011;9455;54.302;10.124;2022-10-22T01:50:49;25.73;;;10.63;;
18651;SDS011;9455;54.302;10.124;2022-10-22T01:53:29;23.77;;;11.20;;
18651;SDS011;9455;54.302;10.124;2022-10-22T01:56:05;22.20;;;10.67;;
18651;SDS011;9455;54.302;10.124;2022-10-22T01:58:43;32.70;;;11.00;;
18651;SDS011;9455;54.302;10.124;2022-10-22T02:01:17;19.93;;;11.00;;
18651;SDS011;9455;54.302;10.124;2022-10-22T02:03:54;24.13;;;10.60;;
18651;SDS011;9455;54.302;10.124;2022-10-22T02:06:25;22.23;;;10.53;;
18651;SDS011;9455;54.302;10.124;2022-10-22T02:08:54;39.83;;;11.37;;
18651;SDS011;9455;54.302;10.124;2022-10-22T02:11:23;27.17;;;10.87;;
18651;SDS011;9455;54.302;10.124;2022-10-22T02:13:50;23.20;;;11.43;;
18651;SDS011;9455;54.302;10.124;2022-10-22T02:16:21;25.33;;;12.10;;
18651;SDS011;9455;54.302;10.124;2022-10-22T02:18:54;29.63;;;12.30;;
18651;SDS011;9455;54.302;10.124;2022-10-22T02:21:23;22.67;;;11.63;;
18651;SDS011;9455;54.302;10.124;2022-10-22T02:23:51;22.67;;;11.33;;
18651;SDS011;9455;54.302;10.124;2022-10-22T02:26:18;29.63;;;11.43;;
18651;SDS011;9455;54.302;10.124;2022-10-22T02:28:51;26.90;;;10.77;;
18651;SDS011;9455;54.302;10.124;2022-10-22T02:31:25;26.10;;;12.17;;
18651;SDS011;9455;54.302;10.124;2022-10-22T02:33:55;27.80;;;12.27;;
18651;SDS011;9455;54.302;10.124;2022-10-22T02:36:26;29.17;;;12.57;;
18651;SDS011;9455;54.302;10.124;2022-10-22T02:38:53;29.77;;;12.17;;
18651;SDS011;9455;54.302;10.124;2022-10-22T02:41:21;31.73;;;12.57;;
18651;SDS011;9455;54.302;10.124;2022-10-22T02:43:49;25.97;;;12.07;;
18651;SDS011;9455;54.302;10.124;2022-10-22T02:46:18;26.97;;;12.20;;
18651;SDS011;9455;54.302;10.124;2022-10-22T02:48:45;22.80;;;11.70;;
18651;SDS011;9455;54.302;10.124;2022-10-22T02:51:13;30.20;;;13.37;;
18651;SDS011;9455;54.302;10.124;2022-10-22T02:53:39;40.17;;;14.40;;
18651;SDS011;9455;54.302;10.124;2022-10-22T02:56:06;30.70;;;13.60;;
18651;SDS011;9455;54.302;10.124;2022-10-22T02:58:33;37.90;;;14.63;;
18651;SDS011;9455;54.302;10.124;2022-10-22T03:00:59;30.10;;;12.43;;
18651;SDS011;9455;54.302;10.124;2022-10-22T03:03:26;32.33;;;13.23;;
18651;SDS011;9455;54.302;10.124;2022-10-22T03:05:53;37.13;;;13.97;;
18651;SDS011;9455;54.302;10.124;2022-10-22T03:08:20;33.40;;;15.20;;
18651;SDS011;9455;54.302;10.124;2022-10-22T03:10:47;37.03;;;14.30;;
18651;SDS011;9455;54.302;10.124;2022-10-22T03:13:13;43.80;;;15.77;;
18651;SDS011;9455;54.302;10.124;2022-10-22T03:15:40;35.47;;;14.07;;
18651;SDS011;9455;54.302;10.124;2022-10-22T03:18:06;37.33;;;14.10;;
18651;SDS011;9455;54.302;10.124;2022-10-22T03:20:33;34.47;;;14.87;;
18651;SDS011;9455;54.302;10.124;2022-10-22T03:22:59;36.90;;;14.27;;
18651;SDS011;9455;54.302;10.124;2022-10-22T03:25:28;30.03;;;13.50;;
18651;SDS011;9455;54.302;10.124;2022-10-22T03:27:59;33.83;;;13.80;;
18651;SDS011;9455;54.302;10.124;2022-10-22T03:30:28;30.63;;;13.03;;
18651;SDS011;9455;54.302;10.124;2022-10-22T03:32:54;38.73;;;13.33;;
18651;SDS011;9455;54.302;10.124;2022-10-22T03:35:21;32.83;;;13.27;;
18651;SDS011;9455;54.302;10.124;2022-10-22T03:37:47;27.37;;;12.57;;
18651;SDS011;9455;54.302;10.124;2022-10-22T03:40:14;33.97;;;12.93;;
18651;SDS011;9455;54.302;10.124;2022-10-22T03:42:43;24.30;;;11.53;;
18651;SDS011;9455;54.302;10.124;2022-10-22T03:45:09;28.73;;;12.30;;
18651;SDS011;9455;54.302;10.124;2022-10-22T03:47:36;36.20;;;13.57;;
18651;SDS011;9455;54.302;10.124;2022-10-22T03:50:03;33.07;;;13.20;;
18651;SDS011;9455;54.302;10.124;2022-10-22T03:52:34;34.17;;;14.30;;
18651;SDS011;9455;54.302;10.124;2022-10-22T03:55:01;37.43;;;13.23;;
18651;SDS011;9455;54.302;10.124;2022-10-22T03:57:28;34.90;;;13.83;;
18651;SDS011;9455;54.302;10.124;2022-10-22T03:59:56;30.50;;;13.23;;
18651;SDS011;9455;54.302;10.124;2022-10-22T04:02:22;34.40;;;11.53;;
18651;SDS011;9455;54.302;10.124;2022-10-22T04:04:49;35.43;;;13.50;;
18651;SDS011;9455;54.302;10.124;2022-10-22T04:07:15;28.83;;;12.40;;
18651;SDS011;9455;54.302;10.124;2022-10-22T04:09:42;31.43;;;12.83;;
18651;SDS011;9455;54.302;10.124;2022-10-22T04:12:08;29.53;;;12.97;;
18651;SDS011;9455;54.302;10.124;2022-10-22T04:14:35;27.63;;;12.03;;
18651;SDS011;9455;54.302;10.124;2022-10-22T04:17:03;32.87;;;13.30;;
18651;SDS011;9455;54.302;10.124;2022-10-22T04:19:29;33.60;;;13.33;;
18651;SDS011;9455;54.302;10.124;2022-10-22T04:21:56;33.23;;;13.47;;
18651;SDS011;9455;54.302;10.124;2022-10-22T04:24:23;33.43;;;14.00;;
18651;SDS011;9455;54.302;10.124;2022-10-22T04:26:49;36.80;;;15.90;;
18651;SDS011;9455;54.302;10.124;2022-10-22T04:29:18;42.53;;;16.47;;
18651;SDS011;9455;54.302;10.124;2022-10-22T04:31:45;47.83;;;16.30;;
18651;SDS011;9455;54.302;10.124;2022-10-22T04:34:13;49.40;;;17.97;;
18651;SDS011;9455;54.302;10.124;2022-10-22T04:36:39;63.73;;;16.60;;
18651;SDS011;9455;54.302;10.124;2022-10-22T04:39:05;47.57;;;16.13;;
18651;SDS011;9455;54.302;10.124;2022-10-22T04:41:32;40.47;;;16.47;;
18651;SDS011;9455;54.302;10.124;2022-10-22T04:44:02;46.03;;;15.77;;
18651;SDS011;9455;54.302;10.124;2022-10-22T04:46:30;49.60;;;16.30;;
18651;SDS011;9455;54.302;10.124;2022-10-22T04:48:58;44.70;;;16.57;;
18651;SDS011;9455;54.302;10.124;2022-10-22T04:51:28;37.63;;;16.00;;
18651;SDS011;9455;54.302;10.124;2022-10-22T04:53:55;36.80;;;14.90;;
18651;SDS011;9455;54.302;10.124;2022-10-22T04:56:23;44.50;;;16.33;;
18651;SDS011;9455;54.302;10.124;2022-10-22T04:58:52;42.97;;;15.63;;
18651;SDS011;9455;54.302;10.124;2022-10-22T05:01:20;35.63;;;14.73;;
18651;SDS011;9455;54.302;10.124;2022-10-22T05:03:48;40.90;;;14.80;;
18651;SDS011;9455;54.302;10.124;2022-10-22T05:06:16;35.50;;;14.63;;
18651;SDS011;9455;54.302;10.124;2022-10-22T05:08:46;39.63;;;15.23;;
18651;SDS011;9455;54.302;10.124;2022-10-22T05:11:13;50.63;;;15.93;;
18651;SDS011;9455;54.302;10.124;2022-10-22T05:13:41;36.00;;;14.43;;
18651;SDS011;9455;54.302;10.124;2022-10-22T05:16:07;41.13;;;14.10;;
18651;SDS011;9455;54.302;10.124;2022-10-22T05:18:34;34.70;;;12.97;;
18651;SDS011;9455;54.302;10.124;2022-10-22T05:21:01;28.83;;;13.43;;
18651;SDS011;9455;54.302;10.124;2022-10-22T05:23:28;32.93;;;14.13;;
18651;SDS011;9455;54.302;10.124;2022-10-22T05:25:56;35.40;;;13.00;;
18651;SDS011;9455;54.302;10.124;2022-10-22T05:28:22;31.83;;;13.47;;
18651;SDS011;9455;54.302;10.124;2022-10-22T05:30:52;31.43;;;13.83;;
18651;SDS011;9455;54.302;10.124;2022-10-22T05:33:19;28.60;;;12.47;;
18651;SDS011;9455;54.302;10.124;2022-10-22T05:35:46;26.77;;;12.73;;
18651;SDS011;9455;54.302;10.124;2022-10-22T05:38:13;32.23;;;13.10;;
18651;SDS011;9455;54.302;10.124;2022-10-22T05:40:39;28.20;;;12.20;;
18651;SDS011;9455;54.302;10.124;2022-10-22T05:43:07;31.90;;;12.57;;
18651;SDS011;9455;54.302;10.124;2022-10-22T05:45:35;28.27;;;10.93;;
18651;SDS011;9455;54.302;10.124;2022-10-22T05:48:01;30.23;;;13.20;;
18651;SDS011;9455;54.302;10.124;2022-10-22T05:50:28;25.47;;;11.53;;
18651;SDS011;9455;54.302;10.124;2022-10-22T05:52:54;30.50;;;11.83;;
18651;SDS011;9455;54.302;10.124;2022-10-22T05:55:21;26.37;;;11.97;;
18651;SDS011;9455;54.302;10.124;2022-10-22T05:57:48;23.87;;;12.03;;
18651;SDS011;9455;54.302;10.124;2022-10-22T06:00:16;33.83;;;13.03;;
18651;SDS011;9455;54.302;10.124;2022-10-22T06:02:42;27.60;;;12.33;;
18651;SDS011;9455;54.302;10.124;2022-10-22T06:05:09;31.23;;;12.40;;
18651;SDS011;9455;54.302;10.124;2022-10-22T06:07:35;24.97;;;11.50;;
18651;SDS011;9455;54.302;10.124;2022-10-22T06:10:02;26.30;;;11.87;;
18651;SDS011;9455;54.302;10.124;2022-10-22T06:12:29;23.07;;;10.70;;
18651;SDS011;9455;54.302;10.124;2022-10-22T06:14:55;30.50;;;11.73;;
18651;SDS011;9455;54.302;10.124;2022-10-22T06:17:23;39.80;;;11.13;;
18651;SDS011;9455;54.302;10.124;2022-10-22T06:19:50;27.20;;;11.80;;
18651;SDS011;9455;54.302;10.124;2022-10-22T06:22:16;32.10;;;11.50;;
18651;SDS011;9455;54.302;10.124;2022-10-22T06:24:43;28.33;;;12.03;;
18651;SDS011;9455;54.302;10.124;2022-10-22T06:27:09;25.90;;;11.63;;
18651;SDS011;9455;54.302;10.124;2022-10-22T06:29:35;27.33;;;11.20;;
18651;SDS011;9455;54.302;10.124;2022-10-22T06:32:02;29.20;;;10.67;;
18651;SDS011;9455;54.302;10.124;2022-10-22T06:34:30;31.17;;;10.47;;
18651;SDS011;9455;54.302;10.124;2022-10-22T06:36:56;21.80;;;11.23;;
18651;SDS011;9455;54.302;10.124;2022-10-22T06:39:23;33.60;;;12.17;;
18651;SDS011;9455;54.302;10.124;2022-10-22T06:41:49;25.83;;;11.57;;
18651;SDS011;9455;54.302;10.124;2022-10-22T06:44:16;26.00;;;11.90;;
18651;SDS011;9455;54.302;10.124;2022-10-22T06:46:48;27.13;;;11.57;;
18651;SDS011;9455;54.302;10.124;2022-10-22T06:49:16;27.53;;;12.43;;
18651;SDS011;9455;54.302;10.124;2022-10-22T06:51:44;34.37;;;12.87;;
18651;SDS011;9455;54.302;10.124;2022-10-22T06:54:11;25.43;;;11.87;;
18651;SDS011;9455;54.302;10.124;2022-10-22T06:59:08;25.13;;;11.57;;
18651;SDS011;9455;54.302;10.124;2022-10-22T07:01:35;22.53;;;11.67;;
18651;SDS011;9455;54.302;10.124;2022-10-22T07:04:02;29.07;;;12.00;;
18651;SDS011;9455;54.302;10.124;2022-10-22T07:06:29;24.03;;;12.07;;
18651;SDS011;9455;54.302;10.124;2022-10-22T07:08:58;24.43;;;11.90;;
18651;SDS011;9455;54.302;10.124;2022-10-22T07:11:25;24.10;;;11.43;;
18651;SDS011;9455;54.302;10.124;2022-10-22T07:13:53;27.27;;;13.13;;
18651;SDS011;9455;54.302;10.124;2022-10-22T07:16:21;21.90;;;11.57;;
18651;SDS011;9455;54.302;10.124;2022-10-22T07:18:47;34.97;;;13.33;;
18651;SDS011;9455;54.302;10.124;2022-10-22T07:21:15;27.10;;;11.43;;
18651;SDS011;9455;54.302;10.124;2022-10-22T07:23:44;30.00;;;12.17;;
18651;SDS011;9455;54.302;10.124;2022-10-22T07:26:13;36.23;;;13.33;;
18651;SDS011;9455;54.302;10.124;2022-10-22T07:28:40;32.47;;;13.63;;
18651;SDS011;9455;54.302;10.124;2022-10-22T07:31:08;27.97;;;12.83;;
18651;SDS011;9455;54.302;10.124;2022-10-22T07:33:36;26.10;;;12.90;;
18651;SDS011;9455;54.302;10.124;2022-10-22T07:36:04;33.87;;;14.83;;
18651;SDS011;9455;54.302;10.124;2022-10-22T07:38:33;32.67;;;14.03;;
18651;SDS011;9455;54.302;10.124;2022-10-22T07:41:00;28.90;;;12.83;;
18651;SDS011;9455;54.302;10.124;2022-10-22T07:43:28;29.50;;;13.10;;
18651;SDS011;9455;54.302;10.124;2022-10-22T07:45:55;27.90;;;12.80;;
18651;SDS011;9455;54.302;10.124;2022-10-22T07:48:21;30.07;;;12.90;;
18651;SDS011;9455;54.302;10.124;2022-10-22T07:50:49;26.40;;;12.57;;
18651;SDS011;9455;54.302;10.124;2022-10-22T07:53:16;29.80;;;13.23;;
18651;SDS011;9455;54.302;10.124;2022-10-22T07:55:44;31.43;;;13.67;;
18651;SDS011;9455;54.302;10.124;2022-10-22T07:58:13;31.53;;;13.97;;
18651;SDS011;9455;54.302;10.124;2022-10-22T08:00:41;31.77;;;12.10;;
18651;SDS011;9455;54.302;10.124;2022-10-22T08:03:08;31.00;;;12.47;;
18651;SDS011;9455;54.302;10.124;2022-10-22T08:05:36;37.60;;;13.53;;
18651;SDS011;9455;54.302;10.124;2022-10-22T08:08:03;32.30;;;14.57;;
18651;SDS011;9455;54.302;10.124;2022-10-22T08:10:30;30.93;;;13.27;;
18651;SDS011;9455;54.302;10.124;2022-10-22T08:12:57;36.57;;;14.47;;
18651;SDS011;9455;54.302;10.124;2022-10-22T08:15:23;29.33;;;13.10;;
18651;SDS011;9455;54.302;10.124;2022-10-22T08:17:52;29.43;;;13.80;;
18651;SDS011;9455;54.302;10.124;2022-10-22T08:20:19;33.43;;;13.10;;
18651;SDS011;9455;54.302;10.124;2022-10-22T08:22:45;33.07;;;13.43;;
18651;SDS011;9455;54.302;10.124;2022-10-22T08:25:12;31.10;;;12.97;;
18651;SDS011;9455;54.302;10.124;2022-10-22T08:27:39;30.07;;;13.33;;
18651;SDS011;9455;54.302;10.124;2022-10-22T08:30:06;32.60;;;13.93;;
18651;SDS011;9455;54.302;10.124;2022-10-22T08:32:33;27.73;;;13.20;;
18651;SDS011;9455;54.302;10.124;2022-10-22T08:35:01;30.63;;;14.80;;
18651;SDS011;9455;54.302;10.124;2022-10-22T08:37:27;32.10;;;13.80;;
18651;SDS011;9455;54.302;10.124;2022-10-22T08:39:54;35.57;;;14.70;;
18651;SDS011;9455;54.302;10.124;2022-10-22T08:42:32;33.10;;;14.23;;
18651;SDS011;9455;54.302;10.124;2022-10-22T08:45:31;27.13;;;13.53;;
18651;SDS011;9455;54.302;10.124;2022-10-22T08:48:08;31.77;;;13.43;;
18651;SDS011;9455;54.302;10.124;2022-10-22T08:50:44;32.80;;;14.13;;
18651;SDS011;9455;54.302;10.124;2022-10-22T08:53:13;29.43;;;11.97;;
18651;SDS011;9455;54.302;10.124;2022-10-22T08:55:42;30.50;;;13.13;;
18651;SDS011;9455;54.302;10.124;2022-10-22T08:58:12;33.40;;;14.30;;
18651;SDS011;9455;54.302;10.124;2022-10-22T09:00:50;36.60;;;13.60;;
18651;SDS011;9455;54.302;10.124;2022-10-22T09:03:25;34.07;;;15.70;;
18651;SDS011;9455;54.302;10.124;2022-10-22T09:06:02;31.73;;;14.00;;
18651;SDS011;9455;54.302;10.124;2022-10-22T09:08:35;29.10;;;13.87;;
18651;SDS011;9455;54.302;10.124;2022-10-22T09:11:05;36.00;;;13.43;;
18651;SDS011;9455;54.302;10.124;2022-10-22T09:13:40;32.77;;;13.57;;
18651;SDS011;9455;54.302;10.124;2022-10-22T09:16:12;33.43;;;13.47;;
18651;SDS011;9455;54.302;10.124;2022-10-22T09:18:42;29.20;;;12.97;;
18651;SDS011;9455;54.302;10.124;2022-10-22T09:21:20;30.17;;;13.77;;
18651;SDS011;9455;54.302;10.124;2022-10-22T09:23:56;30.67;;;13.60;;
18651;SDS011;9455;54.302;10.124;2022-10-22T09:26:30;33.63;;;13.87;;
18651;SDS011;9455;54.302;10.124;2022-10-22T09:28:58;32.30;;;14.03;;
18651;SDS011;9455;54.302;10.124;2022-10-22T09:31:26;36.87;;;14.17;;
18651;SDS011;9455;54.302;10.124;2022-10-22T09:33:56;30.63;;;13.40;;
18651;SDS011;9455;54.302;10.124;2022-10-22T09:36:27;40.13;;;13.97;;
18651;SDS011;9455;54.302;10.124;2022-10-22T09:38:54;33.47;;;14.47;;
18651;SDS011;9455;54.302;10.124;2022-10-22T09:41:22;33.80;;;14.13;;
18651;SDS011;9455;54.302;10.124;2022-10-22T09:43:50;32.70;;;14.00;;
18651;SDS011;9455;54.302;10.124;2022-10-22T09:46:18;39.77;;;16.10;;
18651;SDS011;9455;54.302;10.124;2022-10-22T09:48:47;43.47;;;15.77;;
18651;SDS011;9455;54.302;10.124;2022-10-22T09:51:19;40.20;;;15.43;;
18651;SDS011;9455;54.302;10.124;2022-10-22T09:53:55;39.93;;;15.00;;
18651;SDS011;9455;54.302;10.124;2022-10-22T09:56:24;33.63;;;15.03;;
18651;SDS011;9455;54.302;10.124;2022-10-22T09:58:54;34.57;;;15.87;;
18651;SDS011;9455;54.302;10.124;2022-10-22T10:01:23;40.47;;;15.97;;
18651;SDS011;9455;54.302;10.124;2022-10-22T10:03:52;40.37;;;15.77;;
18651;SDS011;9455;54.302;10.124;2022-10-22T10:06:19;35.70;;;15.13;;
18651;SDS011;9455;54.302;10.124;2022-10-22T10:08:47;48.70;;;17.33;;
18651;SDS011;9455;54.302;10.124;2022-10-22T10:11:17;40.33;;;15.57;;
18651;SDS011;9455;54.302;10.124;2022-10-22T10:13:53;32.80;;;13.47;;
18651;SDS011;9455;54.302;10.124;2022-10-22T10:16:31;42.20;;;16.33;;
18651;SDS011;9455;54.302;10.124;2022-10-22T10:19:10;40.23;;;16.13;;
18651;SDS011;9455;54.302;10.124;2022-10-22T10:21:48;33.67;;;13.63;;
18651;SDS011;9455;54.302;10.124;2022-10-22T10:24:25;37.00;;;14.80;;
18651;SDS011;9455;54.302;10.124;2022-10-22T10:27:01;38.67;;;16.10;;
18651;SDS011;9455;54.302;10.124;2022-10-22T10:29:37;26.20;;;13.67;;
18651;SDS011;9455;54.302;10.124;2022-10-22T10:32:15;31.80;;;13.33;;
18651;SDS011;9455;54.302;10.124;2022-10-22T10:34:55;25.63;;;12.87;;
18651;SDS011;9455;54.302;10.124;2022-10-22T10:37:31;32.07;;;14.10;;
18651;SDS011;9455;54.302;10.124;2022-10-22T10:40:10;29.73;;;13.87;;
18651;SDS011;9455;54.302;10.124;2022-10-22T10:42:47;31.53;;;13.40;;
18651;SDS011;9455;54.302;10.124;2022-10-22T10:45:19;26.50;;;12.97;;
18651;SDS011;9455;54.302;10.124;2022-10-22T10:47:59;28.43;;;12.00;;
18651;SDS011;9455;54.302;10.124;2022-10-22T10:50:37;27.87;;;12.37;;
18651;SDS011;9455;54.302;10.124;2022-10-22T10:53:13;28.77;;;12.43;;
18651;SDS011;9455;54.302;10.124;2022-10-22T10:55:51;38.67;;;13.87;;
18651;SDS011;9455;54.302;10.124;2022-10-22T10:58:24;30.93;;;13.37;;
18651;SDS011;9455;54.302;10.124;2022-10-22T11:01:00;32.40;;;14.53;;
18651;SDS011;9455;54.302;10.124;2022-10-22T11:03:34;33.63;;;13.67;;
18651;SDS011;9455;54.302;10.124;2022-10-22T11:06:14;27.80;;;11.83;;
18651;SDS011;9455;54.302;10.124;2022-10-22T11:08:43;29.20;;;10.63;;
18651;SDS011;9455;54.302;10.124;2022-10-22T11:11:15;25.10;;;11.23;;
18651;SDS011;9455;54.302;10.124;2022-10-22T11:13:47;28.90;;;11.87;;
18651;SDS011;9455;54.302;10.124;2022-10-22T11:16:18;22.60;;;10.20;;
18651;SDS011;9455;54.302;10.124;2022-10-22T11:18:50;26.40;;;10.63;;
18651;SDS011;9455;54.302;10.124;2022-10-22T11:21:23;20.77;;;10.63;;
18651;SDS011;9455;54.302;10.124;2022-10-22T11:23:54;25.70;;;11.40;;
18651;SDS011;9455;54.302;10.124;2022-10-22T11:26:33;26.23;;;10.47;;
18651;SDS011;9455;54.302;10.124;2022-10-22T11:29:04;31.77;;;11.23;;
18651;SDS011;9455;54.302;10.124;2022-10-22T11:31:36;28.37;;;10.50;;
18651;SDS011;9455;54.302;10.124;2022-10-22T11:34:04;18.10;;;10.03;;
18651;SDS011;9455;54.302;10.124;2022-10-22T11:36:37;20.07;;;10.23;;
18651;SDS011;9455;54.302;10.124;2022-10-22T11:39:05;21.63;;;9.03;;
18651;SDS011;9455;54.302;10.124;2022-10-22T11:41:33;20.50;;;9.07;;
18651;SDS011;9455;54.302;10.124;2022-10-22T11:44:07;19.60;;;9.27;;
18651;SDS011;9455;54.302;10.124;2022-10-22T11:46:39;29.20;;;9.73;;
18651;SDS011;9455;54.302;10.124;2022-10-22T11:49:17;21.03;;;8.23;;
18651;SDS011;9455;54.302;10.124;2022-10-22T11:51:48;19.40;;;8.17;;
18651;SDS011;9455;54.302;10.124;2022-10-22T11:54:27;18.70;;;8.23;;
18651;SDS011;9455;54.302;10.124;2022-10-22T11:57:21;22.63;;;7.20;;
18651;SDS011;9455;54.302;10.124;2022-10-22T11:59:52;18.17;;;8.07;;
18651;SDS011;9455;54.302;10.124;2022-10-22T12:02:29;14.70;;;7.40;;
18651;SDS011;9455;54.302;10.124;2022-10-22T12:05:16;17.67;;;6.97;;
18651;SDS011;9455;54.302;10.124;2022-10-22T12:08:17;14.10;;;5.87;;
18651;SDS011;9455;54.302;10.124;2022-10-22T12:10:54;13.47;;;5.10;;
18651;SDS011;9455;54.302;10.124;2022-10-22T12:13:27;14.30;;;5.53;;
18651;SDS011;9455;54.302;10.124;2022-10-22T12:15:56;11.60;;;4.93;;
18651;SDS011;9455;54.302;10.124;2022-10-22T12:18:25;8.90;;;4.67;;
18651;SDS011;9455;54.302;10.124;2022-10-22T12:20:56;17.77;;;4.93;;
18651;SDS011;9455;54.302;10.124;2022-10-22T12:23:24;10.17;;;3.73;;
18651;SDS011;9455;54.302;10.124;2022-10-22T12:25:55;13.03;;;4.60;;
18651;SDS011;9455;54.302;10.124;2022-10-22T12:28:22;12.93;;;4.10;;
18651;SDS011;9455;54.302;10.124;2022-10-22T12:30:50;16.97;;;4.50;;
18651;SDS011;9455;54.302;10.124;2022-10-22T12:33:17;10.63;;;3.73;;
18651;SDS011;9455;54.302;10.124;2022-10-22T12:35:45;8.57;;;3.00;;
18651;SDS011;9455;54.302;10.124;2022-10-22T12:38:14;6.83;;;4.37;;
18651;SDS011;9455;54.302;10.124;2022-10-22T12:40:42;14.17;;;4.73;;
18651;SDS011;9455;54.302;10.124;2022-10-22T12:43:10;17.30;;;4.00;;
18651;SDS011;9455;54.302;10.124;2022-10-22T12:45:38;10.53;;;3.63;;
18651;SDS011;9455;54.302;10.124;2022-10-22T12:48:23;7.93;;;3.73;;
18651;SDS011;9455;54.302;10.124;2022-10-22T12:50:53;14.10;;;4.20;;
18651;SDS011;9455;54.302;10.124;2022-10-22T12:53:23;10.60;;;3.97;;
18651;SDS011;9455;54.302;10.124;2022-10-22T12:55:52;15.73;;;3.60;;
18651;SDS011;9455;54.302;10.124;2022-10-22T12:58:21;13.83;;;3.33;;
18651;SDS011;9455;54.302;10.124;2022-10-22T13:00:53;10.33;;;3.40;;
18651;SDS011;9455;54.302;10.124;2022-10-22T13:03:28;14.53;;;4.70;;
18651;SDS011;9455;54.302;10.124;2022-10-22T13:06:09;9.77;;;4.03;;
18651;SDS011;9455;54.302;10.124;2022-10-22T13:08:37;18.67;;;4.30;;
18651;SDS011;9455;54.302;10.124;2022-10-22T13:11:05;14.47;;;3.40;;
18651;SDS011;9455;54.302;10.124;2022-10-22T13:13:40;8.93;;;3.10;;
18651;SDS011;9455;54.302;10.124;2022-10-22T13:16:18;8.00;;;3.83;;
18651;SDS011;9455;54.302;10.124;2022-10-22T13:18:49;6.27;;;2.77;;
18651;SDS011;9455;54.302;10.124;2022-10-22T13:21:25;12.17;;;3.60;;
18651;SDS011;9455;54.302;10.124;2022-10-22T13:23:57;7.77;;;3.23;;
18651;SDS011;9455;54.302;10.124;2022-10-22T13:26:31;11.33;;;4.47;;
18651;SDS011;9455;54.302;10.124;2022-10-22T13:28:59;17.87;;;3.90;;
18651;SDS011;9455;54.302;10.124;2022-10-22T13:31:27;26.37;;;4.33;;
18651;SDS011;9455;54.302;10.124;2022-10-22T13:33:59;7.23;;;3.17;;
18651;SDS011;9455;54.302;10.124;2022-10-22T13:36:30;11.07;;;3.63;;
18651;SDS011;9455;54.302;10.124;2022-10-22T13:38:57;10.27;;;3.63;;
18651;SDS011;9455;54.302;10.124;2022-10-22T13:41:24;12.60;;;3.47;;
18651;SDS011;9455;54.302;10.124;2022-10-22T13:43:52;5.63;;;3.07;;
18651;SDS011;9455;54.302;10.124;2022-10-22T13:46:19;8.10;;;3.07;;
18651;SDS011;9455;54.302;10.124;2022-10-22T13:48:47;11.77;;;3.90;;
18651;SDS011;9455;54.302;10.124;2022-10-22T13:51:18;12.57;;;3.53;;
18651;SDS011;9455;54.302;10.124;2022-10-22T13:53:46;9.73;;;3.43;;
18651;SDS011;9455;54.302;10.124;2022-10-22T13:56:16;12.87;;;4.70;;
18651;SDS011;9455;54.302;10.124;2022-10-22T13:58:44;16.20;;;4.37;;
18651;SDS011;9455;54.302;10.124;2022-10-22T14:01:15;9.00;;;4.03;;
18651;SDS011;9455;54.302;10.124;2022-10-22T14:03:46;10.87;;;3.87;;
18651;SDS011;9455;54.302;10.124;2022-10-22T14:06:14;14.37;;;4.97;;
18651;SDS011;9455;54.302;10.124;2022-10-22T14:08:44;14.17;;;4.20;;
18651;SDS011;9455;54.302;10.124;2022-10-22T14:11:14;20.33;;;5.00;;
18651;SDS011;9455;54.302;10.124;2022-10-22T14:13:41;22.17;;;4.40;;
18651;SDS011;9455;54.302;10.124;2022-10-22T14:16:11;9.20;;;4.00;;
18651;SDS011;9455;54.302;10.124;2022-10-22T14:18:41;6.60;;;3.87;;
18651;SDS011;9455;54.302;10.124;2022-10-22T14:21:09;11.80;;;3.70;;
18651;SDS011;9455;54.302;10.124;2022-10-22T14:23:38;15.53;;;4.83;;
18651;SDS011;9455;54.302;10.124;2022-10-22T14:26:07;12.03;;;4.00;;
18651;SDS011;9455;54.302;10.124;2022-10-22T14:28:44;13.63;;;4.07;;
18651;SDS011;9455;54.302;10.124;2022-10-22T14:31:11;9.53;;;3.90;;
18651;SDS011;9455;54.302;10.124;2022-10-22T14:33:38;8.30;;;3.83;;
18651;SDS011;9455;54.302;10.124;2022-10-22T14:36:05;12.00;;;3.87;;
18651;SDS011;9455;54.302;10.124;2022-10-22T14:38:32;11.47;;;4.37;;
18651;SDS011;9455;54.302;10.124;2022-10-22T14:40:58;7.97;;;4.47;;
18651;SDS011;9455;54.302;10.124;2022-10-22T14:43:27;10.57;;;5.20;;
18651;SDS011;9455;54.302;10.124;2022-10-22T14:45:55;16.17;;;5.57;;